General Aviation Weather

Text Reports

Enter one or more of the following location identifiers separated by a space:

Zip Code, Four-Character ICAO or Three-Character IATA airport codes.

METAR - Aviation Routine Weather Report
KOKK - Kokomo, Indiana
Updated at 10:35 AM GMT on September 17, 2014 (5:35 AM CDT):
METAR KOKK 171035Z AUTO 18003KT 1/4SM VV002 06/05 A3008 RMK AO1
TAF - Terminal Area Forecast
KOKK - Kokomo, Indiana
Updated at 10:35 AM GMT on September 17, 2014 (5:35 AM CDT):
No TAF is currently available for this location.
Decoded:
No decoded TAF is available.
PIREP - Pilot Weather Report
KOKK - Kokomo, Indiana
Updated at 10:35 AM GMT on September 17, 2014 (5:35 AM CDT):
No PIREP is currently available for this location.
AIRMET - Airmens Meteorological Information
KOKK - Kokomo, Indiana
Updated at 10:35 AM GMT on September 17, 2014 (5:35 AM CDT):
No AIRMET is currently available for this location.
SIGMET - Significant Meteorological Information
KOKK - Kokomo, Indiana
Updated at 10:35 AM GMT on September 17, 2014 (5:35 AM CDT):
No SIGMET is currently available for this location.
NOTAM - Notice to Airmen
KOKK - Kokomo, Indiana
Updated at 10:35 AM GMT on September 17, 2014 (5:35 AM CDT):
No NOTAM is currently available for this location.
Forecast Area
KOKK - Kokomo, Indiana
Updated at 10:35 AM GMT on September 17, 2014 (5:35 AM CDT):
No NOTAM is currently available for this location.
Aviation Weather Maps